Time;durP1;ratioP1;P1;durP2;ratioP2;P2;SDS_P1;SDS_P2;PMS_P1;PMS_P2;Temp;Humidity;BMP_temperature;BMP_pressure;BME280_temperature;BME280_humidity;BME280_pressure;Samples;Min_cycle;Max_cycle;Signal;HPM_P1;HPM_P2
2021/11/27 00:02:26;;;;;;;;;;;;;;;3.96;100.00;97390.27;1718453;82;20130;-67
2021/11/27 00:04:53;;;;;;;;;;;;;;;3.96;100.00;97378.86;1710565;84;21130;-67
2021/11/27 00:07:20;;;;;;;;;;;;;;;3.96;100.00;97385.48;1712748;82;20085;-67
2021/11/27 00:09:46;;;;;;;;;;;;;;;3.95;100.00;97367.98;1732109;82;20161;-67
2021/11/27 00:12:13;;;;;;;;;;;;;;;3.96;100.00;97365.05;1748175;80;20418;-67
2021/11/27 00:14:41;;;;;;;;;;;;;;;3.95;100.00;97360.02;1720806;82;20171;-66
2021/11/27 00:17:07;;;;;;;;;;;;;;;3.93;100.00;97354.97;1734198;81;21199;-66
2021/11/27 00:19:36;;;;;;;;;;;;;;;3.92;100.00;97357.36;1748950;80;20093;-67
2021/11/27 00:22:03;;;;;;;;;;;;;;;3.94;100.00;97350.45;1749924;82;20109;-66
2021/11/27 00:24:30;;;;;;;;;;;;;;;3.97;100.00;97356.55;1750153;80;20085;-66
2021/11/27 00:26:56;;;;;;;;;;;;;;;3.96;100.00;97341.16;1749851;82;20100;-65
2021/11/27 00:29:23;;;;;;;;;;;;;;;3.97;100.00;97341.44;1749959;82;21106;-64
2021/11/27 00:31:50;;;;;;;;;;;;;;;3.97;100.00;97335.31;1733078;81;20111;-65
2021/11/27 00:34:17;;;;;;;;;;;;;;;3.98;100.00;97318.34;1747964;80;20468;-65
2021/11/27 00:36:44;;;;;;;;;;;;;;;3.99;100.00;97326.05;1763412;81;20426;-67
2021/11/27 00:39:11;;;;;;;;;;;;;;;3.99;100.00;97337.17;1744385;81;20082;-66
2021/11/27 00:41:39;;;;;;;;;;;;;;;3.99;100.00;97338.00;1743958;81;22244;-65
2021/11/27 00:44:05;;;;;;;;;;;;;;;4.01;100.00;97323.11;1743810;82;20101;-66
2021/11/27 00:46:33;;;;;;;;;;;;;;;4.01;100.00;97315.15;1756524;80;20115;-65
2021/11/27 00:48:59;;;;;;;;;;;;;;;4.02;100.00;97322.86;1757807;81;20077;-66
2021/11/27 00:51:26;;;;;;;;;;;;;;;4.02;100.00;97280.39;1747792;80;20093;-66
2021/11/27 00:53:54;;;;;;;;;;;;;;;4.06;100.00;97319.92;1766844;79;21118;-65
2021/11/27 00:56:20;;;;;;;;;;;;;;;4.08;100.00;97322.31;1766157;80;20450;-64
2021/11/27 00:58:48;;;;;;;;;;;;;;;4.07;100.00;97321.53;1754382;80;20103;-64
2021/11/27 01:01:19;;;;;;;;;;;;;;;4.06;100.00;97309.30;1765297;80;20093;-66
2021/11/27 01:03:45;;;;;;;;;;;;;;;4.11;100.00;97297.09;1763251;80;20438;-67
2021/11/27 01:06:12;;;;;;;;;;;;;;;4.11;100.00;97283.82;1754416;80;21770;-67
2021/11/27 01:08:40;;;;;;;;;;;;;;;4.15;100.00;97306.92;1780212;80;20116;-66
2021/11/27 01:11:26;;;;;;;;;;;;;;;4.15;100.00;97288.88;1777298;80;20067;-67
2021/11/27 01:13:55;;;;;;;;;;;;;;;4.15;100.00;97290.98;1771371;78;20079;-67
2021/11/27 01:16:23;;;;;;;;;;;;;;;4.15;100.00;97279.58;1756204;80;20081;-67
2021/11/27 01:18:50;;;;;;;;;;;;;;;4.18;100.00;97282.48;1757384;81;21165;-67
2021/11/27 01:21:19;;;;;;;;;;;;;;;4.20;100.00;97271.61;1756177;81;20466;-66
2021/11/27 01:23:46;;;;;;;;;;;;;;;4.20;100.00;97271.06;1773136;80;20140;-67
2021/11/27 01:26:13;;;;;;;;;;;;;;;4.22;100.00;97267.62;1748726;80;20098;-67
2021/11/27 01:28:42;;;;;;;;;;;;;;;4.27;100.00;97254.33;1769018;80;20125;-67
2021/11/27 01:31:09;;;;;;;;;;;;;;;4.29;100.00;97246.10;1758790;80;21746;-67
2021/11/27 01:33:36;;;;;;;;;;;;;;;4.32;100.00;97255.39;1772250;80;20441;-67
2021/11/27 01:36:03;;;;;;;;;;;;;;;4.33;100.00;97231.20;1772569;79;20105;-67
2021/11/27 01:38:32;;;;;;;;;;;;;;;4.35;100.00;97240.23;1772653;79;20922;-67
2021/11/27 01:40:59;;;;;;;;;;;;;;;4.36;100.00;97241.30;1787119;79;20391;-67
2021/11/27 01:43:27;;;;;;;;;;;;;;;4.37;100.00;97244.22;1770502;81;21121;-67
2021/11/27 01:45:54;;;;;;;;;;;;;;;4.38;100.00;97227.20;1750034;81;20110;-66
2021/11/27 01:48:21;;;;;;;;;;;;;;;4.42;100.00;97218.96;1743698;82;20407;-66
2021/11/27 01:50:51;;;;;;;;;;;;;;;4.44;100.00;97210.20;1743686;81;20097;-65
2021/11/27 01:53:18;;;;;;;;;;;;;;;4.47;100.00;97212.84;1743451;81;20093;-64
2021/11/27 01:55:46;;;;;;;;;;;;;;;4.48;100.00;97193.17;1743907;82;21003;-66
2021/11/27 01:58:13;;;;;;;;;;;;;;;4.49;100.00;97196.10;1765775;80;21623;-66
2021/11/27 02:00:42;;;;;;;;;;;;;;;4.52;100.00;97194.23;1770616;81;20140;-65
2021/11/27 02:03:09;;;;;;;;;;;;;;;4.53;100.00;97193.69;1780641;79;20499;-66
2021/11/27 02:05:46;;;;;;;;;;;;;;;4.55;100.00;97189.69;1767173;80;20112;-66
2021/11/27 02:08:13;;;;;;;;;;;;;;;4.55;100.00;97192.88;1788364;79;20521;-66
2021/11/27 02:10:40;;;;;;;;;;;;;;;4.56;100.00;97182.00;1770377;81;20458;-67
2021/11/27 02:13:07;;;;;;;;;;;;;;;4.58;100.00;97170.56;1789035;79;20420;-65
2021/11/27 02:15:34;;;;;;;;;;;;;;;4.60;100.00;97172.39;1770625;81;20109;-66
2021/11/27 02:18:03;;;;;;;;;;;;;;;4.64;100.00;97185.95;1759796;81;20544;-67
2021/11/27 02:20:35;;;;;;;;;;;;;;;4.64;100.00;97176.64;1743959;82;21117;-67
2021/11/27 02:23:02;;;;;;;;;;;;;;;4.65;100.00;97181.67;1760871;79;20075;-67
2021/11/27 02:25:31;;;;;;;;;;;;;;;4.67;100.00;97176.09;1770451;79;20079;-67
2021/11/27 02:27:58;;;;;;;;;;;;;;;4.68;100.00;97173.71;1768339;79;20095;-68
2021/11/27 02:30:26;;;;;;;;;;;;;;;4.69;100.00;97177.95;1741703;82;20089;-67
2021/11/27 02:32:55;;;;;;;;;;;;;;;4.72;100.00;97161.45;1760487;79;21752;-67
2021/11/27 02:35:22;;;;;;;;;;;;;;;4.75;100.00;97152.13;1765787;79;20405;-66
2021/11/27 02:37:48;;;;;;;;;;;;;;;4.78;100.00;97144.93;1781869;78;20124;-66
2021/11/27 02:40:16;;;;;;;;;;;;;;;4.82;100.00;97159.27;1764129;80;20088;-67
2021/11/27 02:42:42;;;;;;;;;;;;;;;4.85;100.00;97170.16;1772196;79;20147;-68
2021/11/27 02:45:09;;;;;;;;;;;;;;;4.87;100.00;97158.70;1756426;81;21177;-67
2021/11/27 02:47:39;;;;;;;;;;;;;;;4.90;100.00;97150.70;1766929;79;20433;-67
2021/11/27 02:50:06;;;;;;;;;;;;;;;4.92;100.00;97154.70;1770089;80;20150;-67
2021/11/27 02:52:34;;;;;;;;;;;;;;;4.94;100.00;97151.21;1767539;81;20168;-67
2021/11/27 02:55:01;;;;;;;;;;;;;;;4.97;100.00;97147.20;1769290;81;20081;-67
2021/11/27 02:57:29;;;;;;;;;;;;;;;5.01;100.00;97130.19;1790098;79;21917;-67
2021/11/27 02:59:56;;;;;;;;;;;;;;;5.04;100.00;97126.42;1781746;80;20064;-67
2021/11/27 03:02:25;;;;;;;;;;;;;;;5.07;100.00;97128.55;1799435;79;20138;-67
2021/11/27 03:04:53;;;;;;;;;;;;;;;5.10;100.00;97131.98;1803669;79;20217;-67
2021/11/27 03:07:20;;;;;;;;;;;;;;;5.13;100.00;97130.09;1799283;79;20142;-67
2021/11/27 03:09:48;;;;;;;;;;;;;;;5.18;100.00;97119.95;1796347;79;20088;-67
2021/11/27 03:12:15;;;;;;;;;;;;;;;5.21;100.00;97131.89;1781696;80;20108;-66
2021/11/27 03:14:42;;;;;;;;;;;;;;;5.23;100.00;97123.89;1774086;80;20211;-66
2021/11/27 03:17:10;;;;;;;;;;;;;;;5.25;100.00;97113.78;1762591;81;20093;-66
2021/11/27 03:19:39;;;;;;;;;;;;;;;5.27;100.00;97120.16;1762771;81;20101;-67
2021/11/27 03:22:06;;;;;;;;;;;;;;;5.31;100.00;97122.50;1762873;81;21116;-68
2021/11/27 03:24:35;;;;;;;;;;;;;;;5.32;100.00;97118.24;1762904;80;20096;-67
2021/11/27 03:27:03;;;;;;;;;;;;;;;5.35;100.00;97115.02;1771157;80;20120;-68
2021/11/27 03:29:30;;;;;;;;;;;;;;;5.39;100.00;97115.27;1781895;80;20104;-68
2021/11/27 03:32:00;;;;;;;;;;;;;;;5.41;100.00;97112.31;1781519;80;20112;-67
2021/11/27 03:34:28;;;;;;;;;;;;;;;5.45;100.00;97109.36;1778209;79;22234;-68
2021/11/27 03:36:55;;;;;;;;;;;;;;;5.46;100.00;97106.94;1775465;81;20081;-68
2021/11/27 03:39:24;;;;;;;;;;;;;;;5.49;100.00;97115.17;1774996;80;20077;-68
2021/11/27 03:41:51;;;;;;;;;;;;;;;5.50;100.00;97115.95;1789196;80;20405;-68
2021/11/27 03:44:20;;;;;;;;;;;;;;;5.50;100.00;97106.64;1782173;80;20110;-68
2021/11/27 03:46:47;;;;;;;;;;;;;;;5.52;100.00;97105.84;1787096;80;21135;-68
2021/11/27 03:49:14;;;;;;;;;;;;;;;5.53;100.00;97113.52;1785919;79;20077;-68
2021/11/27 03:51:42;;;;;;;;;;;;;;;5.55;100.00;97114.03;1789692;80;20393;-68
2021/11/27 03:54:09;;;;;;;;;;;;;;;5.59;100.00;97125.72;1789401;80;20098;-68
2021/11/27 03:56:36;;;;;;;;;;;;;;;5.60;100.00;97119.85;1783913;80;20134;-68
2021/11/27 03:59:04;;;;;;;;;;;;;;;5.61;100.00;97121.45;1782171;80;21125;-68
2021/11/27 04:01:31;;;;;;;;;;;;;;;5.65;100.00;97129.11;1774697;81;20436;-68
2021/11/27 04:03:57;;;;;;;;;;;;;;;5.65;100.00;97127.00;1766919;80;20131;-69
2021/11/27 04:06:25;;;;;;;;;;;;;;;5.66;100.00;97122.73;1773690;80;20489;-68
2021/11/27 04:08:54;;;;;;;;;;;;;;;5.69;100.00;97110.73;1797939;79;20101;-66
2021/11/27 04:11:21;;;;;;;;;;;;;;;5.71;100.00;97107.26;1770912;80;21173;-66
2021/11/27 04:13:49;;;;;;;;;;;;;;;5.71;100.00;97109.92;1771472;80;20084;-66
2021/11/27 04:16:16;;;;;;;;;;;;;;;5.76;100.00;97119.18;1773626;78;20071;-67
2021/11/27 04:18:43;;;;;;;;;;;;;;;5.79;100.00;97126.05;1819790;77;20428;-68
2021/11/27 04:21:11;;;;;;;;;;;;;;;5.80;100.00;97119.64;1807297;78;20119;-67
2021/11/27 04:23:39;;;;;;;;;;;;;;;5.82;100.00;97132.68;1779765;79;21126;-66
2021/11/27 04:26:08;;;;;;;;;;;;;;;5.82;100.00;97124.70;1768714;80;20120;-66
2021/11/27 04:28:35;;;;;;;;;;;;;;;5.82;100.00;97127.36;1776340;80;20088;-66
2021/11/27 04:31:02;;;;;;;;;;;;;;;5.85;100.00;97123.34;1785347;80;21103;-67
2021/11/27 04:33:30;;;;;;;;;;;;;;;5.88;100.00;97126.75;1776492;80;20133;-67
2021/11/27 04:35:56;;;;;;;;;;;;;;;5.88;100.00;97124.09;1751447;81;21184;-67
2021/11/27 04:38:25;;;;;;;;;;;;;;;5.88;100.00;97121.44;1749421;81;20430;-67
2021/11/27 04:40:52;;;;;;;;;;;;;;;5.88;100.00;97123.58;1770454;81;20133;-66
2021/11/27 04:43:19;;;;;;;;;;;;;;;5.88;100.00;97130.23;1770622;81;20134;-66
2021/11/27 04:45:46;;;;;;;;;;;;;;;5.89;100.00;97121.70;1770524;81;20419;-67
2021/11/27 04:48:14;;;;;;;;;;;;;;;5.88;100.00;97117.44;1770499;81;21132;-66
2021/11/27 04:50:43;;;;;;;;;;;;;;;5.89;100.00;97141.67;1763169;81;20112;-66
2021/11/27 04:53:12;;;;;;;;;;;;;;;5.86;100.00;97140.38;1746510;79;20090;-66
2021/11/27 04:55:40;;;;;;;;;;;;;;;5.85;100.00;97134.77;1769232;79;20077;-67
2021/11/27 04:58:08;;;;;;;;;;;;;;;5.85;100.00;97147.30;1743711;81;20097;-66
2021/11/27 05:00:39;;;;;;;;;;;;;;;5.86;100.00;97143.58;1760141;81;21838;-67
2021/11/27 05:03:07;;;;;;;;;;;;;;;5.86;100.00;97144.91;1780759;79;20130;-67
2021/11/27 05:05:34;;;;;;;;;;;;;;;5.87;100.00;97152.59;1778180;79;20069;-67
2021/11/27 05:08:00;;;;;;;;;;;;;;;5.86;100.00;97158.22;1769200;81;20089;-68
2021/11/27 05:10:27;;;;;;;;;;;;;;;5.84;100.00;97163.81;1760553;79;20419;-67
2021/11/27 05:12:53;;;;;;;;;;;;;;;5.82;100.00;97163.84;1759431;79;21035;-68
2021/11/27 05:15:20;;;;;;;;;;;;;;;5.79;100.00;97165.98;1767967;79;20097;-67
2021/11/27 05:17:50;;;;;;;;;;;;;;;5.79;100.00;97167.86;1743901;82;20211;-68
2021/11/27 05:20:19;;;;;;;;;;;;;;;5.81;100.00;97171.03;1762209;81;20415;-68
2021/11/27 05:22:45;;;;;;;;;;;;;;;5.81;100.00;97171.03;1771083;81;20427;-68
2021/11/27 05:25:12;;;;;;;;;;;;;;;5.80;100.00;97183.53;1778391;79;21091;-68
2021/11/27 05:27:41;;;;;;;;;;;;;;;5.80;100.00;97179.53;1743681;81;20124;-68
2021/11/27 05:30:17;;;;;;;;;;;;;;;5.79;100.00;97162.53;1715995;81;20072;-68
2021/11/27 05:33:08;;;;;;;;;;;;;;;5.78;100.00;97180.37;1720513;82;20104;-67
2021/11/27 05:35:25;;;;;;;;;;;;;;;5.76;100.00;97163.10;1736100;80;20119;-67
2021/11/27 05:37:51;;;;;;;;;;;;;;;5.73;100.00;97187.08;1787239;79;21186;-67
2021/11/27 05:40:18;;;;;;;;;;;;;;;5.72;100.00;97180.70;1793773;79;20127;-67
2021/11/27 05:42:45;;;;;;;;;;;;;;;5.72;100.00;97193.46;1755269;81;20112;-67
2021/11/27 05:45:12;;;;;;;;;;;;;;;5.71;100.00;97197.20;1787889;80;20091;-67
2021/11/27 05:47:41;;;;;;;;;;;;;;;5.72;100.00;97203.32;1765775;80;20469;-66
2021/11/27 05:50:10;;;;;;;;;;;;;;;5.74;100.00;97201.18;1783029;80;21129;-67
2021/11/27 05:52:38;;;;;;;;;;;;;;;5.74;100.00;97199.30;1789140;80;20480;-67
2021/11/27 05:55:05;;;;;;;;;;;;;;;5.76;100.00;97201.70;1776203;81;20473;-67
2021/11/27 05:57:31;;;;;;;;;;;;;;;5.78;100.00;97205.67;1767975;81;20076;-67
2021/11/27 05:59:59;;;;;;;;;;;;;;;5.77;100.00;97210.72;1757456;81;20204;-67
2021/11/27 06:02:25;;;;;;;;;;;;;;;5.77;100.00;97209.38;1756899;81;21141;-66
2021/11/27 06:04:52;;;;;;;;;;;;;;;5.77;100.00;97208.59;1757737;81;20411;-66
2021/11/27 06:07:19;;;;;;;;;;;;;;;5.76;100.00;97210.47;1757075;80;20147;-67
2021/11/27 06:09:45;;;;;;;;;;;;;;;5.72;100.00;97212.09;1766021;81;20359;-66
2021/11/27 06:12:12;;;;;;;;;;;;;;;5.72;100.00;97218.75;1776419;81;20076;-67
2021/11/27 06:14:38;;;;;;;;;;;;;;;5.73;100.00;97211.55;1776193;80;21770;-66
2021/11/27 06:17:06;;;;;;;;;;;;;;;5.74;100.00;97222.47;1792856;80;20067;-66
2021/11/27 06:19:33;;;;;;;;;;;;;;;5.70;100.00;97216.89;1797893;80;20409;-67
2021/11/27 06:22:00;;;;;;;;;;;;;;;5.70;100.00;97222.22;1787452;80;20841;-66
2021/11/27 06:24:29;;;;;;;;;;;;;;;5.71;100.00;97225.70;1779520;80;20104;-67
2021/11/27 06:26:57;;;;;;;;;;;;;;;5.71;100.00;97226.48;1778752;80;20085;-66
2021/11/27 06:29:24;;;;;;;;;;;;;;;5.71;100.00;97227.81;1774271;80;20136;-64
2021/11/27 06:31:50;;;;;;;;;;;;;;;5.71;100.00;97235.80;1743217;80;20142;-65
2021/11/27 06:34:17;;;;;;;;;;;;;;;5.72;100.00;97226.73;1739465;82;20084;-65
2021/11/27 06:36:45;;;;;;;;;;;;;;;5.73;100.00;97231.52;1752865;80;20394;-66
2021/11/27 06:39:13;;;;;;;;;;;;;;;5.74;100.00;97226.47;1770295;81;21727;-66
2021/11/27 06:41:41;;;;;;;;;;;;;;;5.73;100.00;97232.33;1763937;80;20132;-67
2021/11/27 06:44:25;;;;;;;;;;;;;;;5.72;100.00;97225.95;1707041;83;20200;-68
2021/11/27 06:46:51;;;;;;;;;;;;;;;5.73;100.00;97241.64;1717701;82;20366;-68
2021/11/27 06:49:19;;;;;;;;;;;;;;;5.73;100.00;97240.31;1716136;82;20430;-68
2021/11/27 06:51:47;;;;;;;;;;;;;;;5.76;100.00;97245.62;1763674;81;21120;-68
2021/11/27 06:54:15;;;;;;;;;;;;;;;5.76;100.00;97253.60;1703730;83;20507;-68
2021/11/27 06:56:42;;;;;;;;;;;;;;;5.78;100.00;97250.92;1685300;85;20156;-67
2021/11/27 06:59:09;;;;;;;;;;;;;;;5.79;100.00;97253.04;1721841;82;20179;-67
2021/11/27 07:01:53;;;;;;;;;;;;;;;5.83;100.00;97259.41;1717874;82;20174;-68
2021/11/27 07:04:38;;;;;;;;;;;;;;;5.83;100.00;97257.25;1740096;82;21122;-68
2021/11/27 07:07:25;;;;;;;;;;;;;;;5.86;100.00;97259.38;1711086;82;20446;-68
2021/11/27 07:09:55;;;;;;;;;;;;;;;5.89;100.00;97254.83;1705336;82;20156;-68
2021/11/27 07:12:29;;;;;;;;;;;;;;;5.90;100.00;97248.41;1697626;84;20191;-68
2021/11/27 07:14:58;;;;;;;;;;;;;;;5.91;100.00;97255.34;1699068;84;20142;-69
2021/11/27 07:17:25;;;;;;;;;;;;;;;5.92;100.00;97251.59;1675358;84;22038;-69
2021/11/27 07:19:53;;;;;;;;;;;;;;;5.92;100.00;97242.28;1738850;81;20152;-68
2021/11/27 07:22:20;;;;;;;;;;;;;;;5.96;100.00;97260.11;1740507;82;20097;-69
2021/11/27 07:24:47;;;;;;;;;;;;;;;6.00;100.00;97253.16;1741217;82;20085;-69
2021/11/27 07:27:15;;;;;;;;;;;;;;;6.04;100.00;97281.34;1741387;82;20695;-68
2021/11/27 07:29:42;;;;;;;;;;;;;;;6.13;100.00;97273.56;1741648;82;20965;-69
2021/11/27 07:32:09;;;;;;;;;;;;;;;6.17;100.00;97273.23;1741449;82;20108;-68
2021/11/27 07:34:39;;;;;;;;;;;;;;;6.25;100.00;97264.66;1762633;78;20646;-68
2021/11/27 07:37:24;;;;;;;;;;;;;;;6.49;100.00;97268.66;1788179;78;20467;-69
2021/11/27 08:00:11;;;;;;;;;;;;;;;7.20;100.00;97281.71;1711232;83;20146;-70
2021/11/27 08:13:54;;;;;;;;;;;;;;;7.68;100.00;97309.59;1713075;82;20496;-70
2021/11/27 08:16:20;;;;;;;;;;;;;;;7.78;100.00;97311.86;1703677;84;20109;-71
2021/11/27 08:18:50;;;;;;;;;;;;;;;7.87;100.00;97294.89;1680123;84;20673;-70
2021/11/27 08:21:17;;;;;;;;;;;;;;;7.81;100.00;97309.94;1703999;84;20165;-70
2021/11/27 08:23:44;;;;;;;;;;;;;;;8.00;100.00;97315.27;1708854;84;20134;-71
2021/11/27 08:26:10;;;;;;;;;;;;;;;8.00;100.00;97297.36;1699660;81;20170;-71
2021/11/27 08:28:37;;;;;;;;;;;;;;;8.07;100.00;97287.64;1773658;80;20203;-71
2021/11/27 08:31:05;;;;;;;;;;;;;;;8.00;100.00;97301.36;1771942;80;21983;-71
2021/11/27 08:33:33;;;;;;;;;;;;;;;7.87;100.00;97296.23;1767529;80;20120;-71
2021/11/27 08:36:00;;;;;;;;;;;;;;;7.81;100.00;97311.27;1762876;80;20145;-68
2021/11/27 08:38:29;;;;;;;;;;;;;;;7.59;100.00;97305.19;1751945;81;20110;-72
2021/11/27 08:40:56;;;;;;;;;;;;;;;7.69;100.00;97311.71;1803875;78;20098;-71
2021/11/27 08:43:23;;;;;;;;;;;;;;;7.65;100.00;97308.05;1823931;77;21141;-71
2021/11/27 08:45:50;;;;;;;;;;;;;;;7.69;100.00;97313.86;1785284;80;20145;-71
2021/11/27 08:48:17;;;;;;;;;;;;;;;7.81;100.00;97304.59;1785295;80;20548;-69
2021/11/27 08:50:45;;;;;;;;;;;;;;;8.10;100.00;97307.88;1785742;79;20141;-71
2021/11/27 08:53:13;;;;;;;;;;;;;;;8.38;100.00;97308.75;1827602;77;20155;-70
2021/11/27 08:55:41;;;;;;;;;;;;;;;8.61;100.00;97302.23;1802150;77;21208;-71
2021/11/27 08:58:07;;;;;;;;;;;;;;;8.45;100.00;97310.27;1784835;80;20090;-70
2021/11/27 09:00:34;;;;;;;;;;;;;;;8.27;100.00;97315.34;1786596;79;20562;-70
2021/11/27 09:03:01;;;;;;;;;;;;;;;8.26;100.00;97323.67;1784922;79;20869;-71
2021/11/27 09:05:28;;;;;;;;;;;;;;;8.18;100.00;97313.63;1849749;77;20469;-70
2021/11/27 09:07:57;;;;;;;;;;;;;;;8.12;100.00;97318.28;1800664;77;20561;-69
2021/11/27 09:10:23;;;;;;;;;;;;;;;8.09;100.00;97325.55;1804326;77;20076;-71
2021/11/27 09:12:51;;;;;;;;;;;;;;;8.01;100.00;97318.17;1821814;77;20184;-71
2021/11/27 09:15:18;;;;;;;;;;;;;;;8.04;100.00;97316.28;1792207;75;20145;-71
2021/11/27 09:17:46;;;;;;;;;;;;;;;8.01;100.00;97324.34;1792049;79;20169;-71
2021/11/27 09:20:15;;;;;;;;;;;;;;;7.99;100.00;97318.48;1800771;79;20154;-70
2021/11/27 09:22:43;;;;;;;;;;;;;;;7.92;100.00;97333.54;1793318;79;20201;-71
2021/11/27 09:25:10;;;;;;;;;;;;;;;7.92;100.00;97332.20;1797294;77;20194;-70
2021/11/27 09:27:38;;;;;;;;;;;;;;;7.94;100.00;97340.73;1812801;77;20148;-71
2021/11/27 09:30:06;;;;;;;;;;;;;;;8.08;100.00;97339.98;1807376;77;20138;-68
2021/11/27 09:32:34;;;;;;;;;;;;;;;8.14;100.00;97345.50;1802156;78;21125;-73
2021/11/27 09:35:03;;;;;;;;;;;;;;;8.21;100.00;97340.58;1808818;78;20139;-70
2021/11/27 09:37:31;;;;;;;;;;;;;;;8.33;100.00;97346.27;1807032;77;20093;-70
2021/11/27 09:40:00;;;;;;;;;;;;;;;8.32;100.00;97333.97;1815372;77;20112;-71
2021/11/27 09:42:27;;;;;;;;;;;;;;;8.41;100.00;97348.84;1802511;77;20182;-70
2021/11/27 09:44:55;;;;;;;;;;;;;;;8.41;100.00;97350.72;1811698;77;21787;-72
2021/11/27 09:47:22;;;;;;;;;;;;;;;8.40;100.00;97350.45;1813457;76;20204;-73
2021/11/27 09:49:49;;;;;;;;;;;;;;;8.24;100.00;97363.25;1823597;77;20145;-71
2021/11/27 09:52:21;;;;;;;;;;;;;;;8.27;100.00;97364.00;1850517;76;20110;-72
2021/11/27 09:54:48;;;;;;;;;;;;;;;8.23;100.00;97369.15;1850511;77;20161;-72
2021/11/27 09:57:15;;;;;;;;;;;;;;;8.27;100.00;97374.14;1833127;77;21123;-71
2021/11/27 09:59:43;;;;;;;;;;;;;;;8.25;100.00;97377.64;1830037;76;20104;-68
2021/11/27 10:02:13;;;;;;;;;;;;;;;8.26;100.00;97388.61;1812607;79;20142;-72
2021/11/27 10:04:51;;;;;;;;;;;;;;;8.25;100.00;97388.34;1815945;77;20197;-71
2021/11/27 10:07:18;;;;;;;;;;;;;;;8.10;100.00;97381.90;1808640;79;20558;-73
2021/11/27 10:09:46;;;;;;;;;;;;;;;8.12;100.00;97389.09;1819655;77;21086;-75
2021/11/27 10:12:14;;;;;;;;;;;;;;;8.01;100.00;97383.11;1842155;75;20093;-73
2021/11/27 10:14:42;;;;;;;;;;;;;;;7.94;100.00;97392.81;1836721;77;20070;-73
2021/11/27 10:17:20;;;;;;;;;;;;;;;7.92;100.00;97387.51;1829255;77;20139;-74
2021/11/27 10:19:49;;;;;;;;;;;;;;;7.87;100.00;97399.05;1824503;77;20539;-73
2021/11/27 10:22:20;;;;;;;;;;;;;;;7.84;100.00;97390.81;1838567;76;21169;-70
2021/11/27 10:24:47;;;;;;;;;;;;;;;7.81;100.00;97398.86;1855946;77;20079;-71
2021/11/27 10:27:23;;;;;;;;;;;;;;;7.77;100.00;97394.41;1844202;77;20106;-71
2021/11/27 10:30:09;;;;;;;;;;;;;;;7.78;100.00;97398.11;1814817;77;20232;-70
2021/11/27 10:32:40;;;;;;;;;;;;;;;7.75;100.00;97395.23;1834783;76;20485;-71
2021/11/27 10:35:10;;;;;;;;;;;;;;;7.77;100.00;97388.52;1811481;78;20089;-70
2021/11/27 10:37:42;;;;;;;;;;;;;;;7.75;100.00;97390.68;1811348;79;20171;-71
2021/11/27 10:40:12;;;;;;;;;;;;;;;7.79;100.00;97396.23;1814006;77;20121;-71
2021/11/27 10:42:46;;;;;;;;;;;;;;;7.79;100.00;97401.05;1835254;77;20125;-71
2021/11/27 10:45:18;;;;;;;;;;;;;;;7.81;100.00;97394.85;1812755;77;20444;-71
2021/11/27 10:47:48;;;;;;;;;;;;;;;7.84;100.00;97398.30;1811338;76;21128;-71
2021/11/27 10:50:19;;;;;;;;;;;;;;;7.81;100.00;97419.44;1811587;77;20088;-71
2021/11/27 10:52:51;;;;;;;;;;;;;;;7.76;100.00;97420.30;1811355;78;20434;-72
2021/11/27 10:55:26;;;;;;;;;;;;;;;7.77;100.00;97408.55;1810644;77;20501;-70
2021/11/27 10:57:56;;;;;;;;;;;;;;;7.75;100.00;97429.40;1811856;79;20496;-71
2021/11/27 11:00:43;;;;;;;;;;;;;;;7.74;100.00;97431.80;1801862;79;21134;-72
2021/11/27 11:03:33;;;;;;;;;;;;;;;7.73;100.00;97433.68;1811723;78;20104;-72
2021/11/27 11:06:27;;;;;;;;;;;;;;;7.72;100.00;97444.67;1831193;77;20278;-71
2021/11/27 11:08:57;;;;;;;;;;;;;;;7.69;100.00;97426.53;1846797;77;20154;-69
2021/11/27 11:11:28;;;;;;;;;;;;;;;7.69;100.00;97446.03;1863229;76;20160;-70
2021/11/27 11:13:58;;;;;;;;;;;;;;;7.66;100.00;97449.25;1858703;76;21991;-70
2021/11/27 11:16:30;;;;;;;;;;;;;;;7.65;100.00;97451.69;1797697;77;20122;-70
2021/11/27 11:19:16;;;;;;;;;;;;;;;7.68;100.00;97448.98;1805089;77;20689;-70
2021/11/27 11:22:03;;;;;;;;;;;;;;;7.68;100.00;97459.66;1831713;77;20091;-71
2021/11/27 11:24:31;;;;;;;;;;;;;;;7.69;100.00;97450.56;1847426;77;20418;-71
2021/11/27 11:27:00;;;;;;;;;;;;;;;7.67;100.00;97458.08;1846331;77;21134;-71
2021/11/27 11:29:45;;;;;;;;;;;;;;;7.66;100.00;97461.27;1847497;77;20183;-71
2021/11/27 11:32:22;;;;;;;;;;;;;;;7.67;100.00;97464.77;1847961;77;20158;-70
2021/11/27 11:34:53;;;;;;;;;;;;;;;7.70;100.00;97468.19;1846649;77;20126;-69
2021/11/27 11:37:20;;;;;;;;;;;;;;;7.67;100.00;97466.88;1847849;77;20143;-70
2021/11/27 11:39:48;;;;;;;;;;;;;;;7.69;100.00;97466.06;1846639;77;21137;-70
2021/11/27 11:42:16;;;;;;;;;;;;;;;7.70;100.00;97466.85;1817583;77;20103;-72
2021/11/27 11:44:46;;;;;;;;;;;;;;;7.68;100.00;97468.46;1847666;77;20511;-71
2021/11/27 11:47:19;;;;;;;;;;;;;;;7.68;100.00;97471.68;1847812;77;20092;-72
2021/11/27 11:49:57;;;;;;;;;;;;;;;7.65;100.00;97462.36;1846687;77;20214;-72
2021/11/27 11:52:28;;;;;;;;;;;;;;;7.66;100.00;97471.95;1847015;77;21085;-71
2021/11/27 11:55:00;;;;;;;;;;;;;;;7.65;100.00;97472.25;1846878;77;20078;-72
2021/11/27 11:57:45;;;;;;;;;;;;;;;7.63;100.00;97472.53;1846956;77;20153;-72
2021/11/27 12:00:30;;;;;;;;;;;;;;;7.63;100.00;97471.74;1846521;77;20117;-73
2021/11/27 12:03:12;;;;;;;;;;;;;;;7.63;100.00;97472.53;1858752;76;20200;-72
2021/11/27 12:06:02;;;;;;;;;;;;;;;7.65;100.00;97469.59;1846918;77;21172;-72
2021/11/27 12:08:53;;;;;;;;;;;;;;;7.63;100.00;97478.41;1834215;77;20132;-71
2021/11/27 12:11:47;;;;;;;;;;;;;;;7.63;100.00;97489.89;1841440;77;20137;-72
2021/11/27 12:14:28;;;;;;;;;;;;;;;7.64;100.00;97491.49;1810876;76;20199;-71
2021/11/27 12:17:15;;;;;;;;;;;;;;;7.64;100.00;97489.34;1814453;77;20439;-71
2021/11/27 12:19:45;;;;;;;;;;;;;;;7.65;100.00;97499.75;1813635;79;21746;-72
2021/11/27 12:22:34;;;;;;;;;;;;;;;7.65;100.00;97490.95;1822873;77;20092;-72
2021/11/27 12:25:19;;;;;;;;;;;;;;;7.65;100.00;97498.41;1813016;77;20111;-71
2021/11/27 12:27:56;;;;;;;;;;;;;;;7.65;100.00;97505.09;1840017;77;20234;-71
2021/11/27 12:30:23;;;;;;;;;;;;;;;7.64;100.00;97501.36;1831301;77;20134;-71
2021/11/27 12:32:51;;;;;;;;;;;;;;;7.66;100.00;97514.67;1845452;77;21938;-72
2021/11/27 12:35:32;;;;;;;;;;;;;;;7.65;100.00;97517.10;1822291;77;20151;-71
2021/11/27 12:38:31;;;;;;;;;;;;;;;7.67;100.00;97526.97;1845458;77;20127;-70
2021/11/27 12:40:59;;;;;;;;;;;;;;;7.66;100.00;97532.03;1845452;77;20158;-70
2021/11/27 12:43:27;;;;;;;;;;;;;;;7.66;100.00;97528.58;1845418;77;20171;-72
2021/11/27 12:45:57;;;;;;;;;;;;;;;7.65;100.00;97529.66;1845600;77;21764;-70
2021/11/27 12:48:34;;;;;;;;;;;;;;;7.65;100.00;97525.66;1806986;77;20158;-71
2021/11/27 12:51:22;;;;;;;;;;;;;;;7.68;100.00;97530.42;1794733;78;20091;-71
2021/11/27 12:54:05;;;;;;;;;;;;;;;7.68;100.00;97536.55;1793700;78;20135;-70
2021/11/27 12:56:59;;;;;;;;;;;;;;;7.69;100.00;97535.49;1732706;81;20096;-69
2021/11/27 12:59:25;;;;;;;;;;;;;;;7.68;100.00;97544.56;1732534;83;21213;-69
2021/11/27 13:01:52;;;;;;;;;;;;;;;7.73;100.00;97549.06;1732121;83;20202;-70
2021/11/27 13:04:20;;;;;;;;;;;;;;;7.71;100.00;97553.87;1732651;83;20535;-72
2021/11/27 13:06:48;;;;;;;;;;;;;;;7.73;100.00;97565.87;1780354;80;20416;-74
2021/11/27 13:09:17;;;;;;;;;;;;;;;7.70;100.00;97558.43;1754482;81;20270;-71
2021/11/27 13:11:48;;;;;;;;;;;;;;;7.71;100.00;97569.36;1732358;81;21094;-71
2021/11/27 13:14:29;;;;;;;;;;;;;;;7.69;100.00;97570.72;1743222;81;20154;-72
2021/11/27 13:17:11;;;;;;;;;;;;;;;7.65;100.00;97570.50;1753124;80;20276;-71
2021/11/27 13:19:43;;;;;;;;;;;;;;;7.64;100.00;97569.44;1752106;82;20237;-71
2021/11/27 13:22:20;;;;;;;;;;;;;;;7.64;100.00;97565.44;1745314;82;20257;-71
2021/11/27 13:24:58;;;;;;;;;;;;;;;7.59;100.00;97563.61;1744597;82;21141;-70
2021/11/27 13:27:27;;;;;;;;;;;;;;;7.56;100.00;97563.39;1743760;82;20235;-71
2021/11/27 13:30:07;;;;;;;;;;;;;;;7.54;100.00;97559.66;1743978;82;20182;-73
2021/11/27 13:32:37;;;;;;;;;;;;;;;7.48;100.00;97562.92;1745568;80;20176;-71
2021/11/27 13:35:05;;;;;;;;;;;;;;;7.44;100.00;97565.10;1786259;80;20259;-72